createdAt,value
2019-02-06T00:01:48.917Z,16.73
2019-02-06T00:04:17.670Z,15.57
2019-02-06T00:06:46.074Z,16.00
2019-02-06T00:09:15.745Z,17.23
2019-02-06T00:11:44.135Z,15.70
2019-02-06T00:14:12.630Z,17.33
2019-02-06T00:16:41.085Z,16.70
2019-02-06T00:19:09.797Z,16.37
2019-02-06T00:21:38.962Z,18.20
2019-02-06T00:24:07.356Z,18.90
2019-02-06T00:26:36.006Z,17.70
2019-02-06T00:29:05.181Z,16.03
2019-02-06T00:31:33.565Z,14.80
2019-02-06T00:34:04.676Z,14.37
2019-02-06T00:36:33.454Z,13.63
2019-02-06T00:39:02.009Z,14.77
2019-02-06T00:41:30.656Z,14.13
2019-02-06T00:43:59.064Z,16.67
2019-02-06T00:46:27.449Z,15.57
2019-02-06T00:48:57.725Z,15.73
2019-02-06T00:51:28.080Z,14.67
2019-02-06T00:53:56.710Z,13.00
2019-02-06T00:56:26.337Z,14.93
2019-02-06T00:58:54.823Z,14.67
2019-02-06T01:01:23.344Z,14.50
2019-02-06T01:03:51.730Z,15.77
2019-02-06T01:06:20.116Z,16.23
2019-02-06T01:08:52.500Z,14.73
2019-02-06T01:11:21.613Z,13.63
2019-02-06T01:13:50.008Z,14.00
2019-02-06T01:16:18.421Z,13.90
2019-02-06T01:18:46.980Z,12.87
2019-02-06T01:21:15.524Z,13.40
2019-02-06T01:23:44.695Z,13.87
2019-02-06T01:26:13.276Z,12.93
2019-02-06T01:28:44.689Z,13.10
2019-02-06T01:31:20.385Z,13.67
2019-02-06T01:33:51.793Z,14.03
2019-02-06T01:36:20.789Z,13.93
2019-02-06T01:38:52.264Z,15.87
2019-02-06T01:41:20.663Z,17.70
2019-02-06T01:43:52.248Z,17.00
2019-02-06T01:46:27.933Z,16.43
2019-02-06T01:49:02.025Z,17.07
2019-02-06T01:51:32.048Z,17.40
2019-02-06T01:54:00.452Z,15.03
2019-02-06T01:56:31.566Z,15.37
2019-02-06T01:59:05.946Z,14.73
2019-02-06T02:01:44.522Z,15.63
2019-02-06T02:04:14.629Z,15.30
2019-02-06T02:06:43.029Z,16.83
2019-02-06T02:09:13.316Z,14.63
2019-02-06T02:11:43.352Z,15.23
2019-02-06T02:14:15.996Z,16.63
2019-02-06T02:16:47.976Z,18.03
2019-02-06T02:19:16.426Z,16.33
2019-02-06T02:21:45.081Z,17.43
2019-02-06T02:24:15.883Z,17.27
2019-02-06T02:26:44.273Z,16.87
2019-02-06T02:29:13.981Z,16.70
2019-02-06T02:31:44.666Z,15.23
2019-02-06T02:34:19.221Z,14.40
2019-02-06T02:36:48.622Z,14.53
2019-02-06T02:39:22.430Z,14.67
2019-02-06T02:41:57.348Z,14.97
2019-02-06T02:44:27.595Z,17.37
2019-02-06T02:46:59.140Z,14.90
2019-02-06T02:49:30.890Z,14.30
2019-02-06T02:52:02.445Z,13.37
2019-02-06T02:54:30.861Z,14.40
2019-02-06T02:57:06.196Z,13.33
2019-02-06T02:59:34.868Z,13.70
2019-02-06T03:02:10.953Z,14.47
2019-02-06T03:04:45.586Z,14.93
2019-02-06T03:07:19.845Z,16.67
2019-02-06T03:09:49.890Z,13.73
2019-02-06T03:12:19.920Z,13.80
2019-02-06T03:14:51.462Z,14.17
2019-02-06T03:17:21.488Z,13.33
2019-02-06T03:19:49.892Z,13.17
2019-02-06T03:22:19.073Z,14.87
2019-02-06T03:24:50.177Z,15.60
2019-02-06T03:27:18.802Z,15.77
2019-02-06T03:29:54.416Z,15.43
2019-02-06T03:32:25.808Z,17.80
2019-02-06T03:34:58.781Z,16.50
2019-02-06T03:37:27.184Z,16.80
2019-02-06T03:39:55.675Z,14.87
2019-02-06T03:42:29.816Z,13.50
2019-02-06T03:44:59.849Z,14.20
2019-02-06T03:47:31.227Z,15.10
2019-02-06T03:49:59.658Z,13.80
2019-02-06T03:52:43.057Z,14.00
2019-02-06T03:55:15.885Z,12.80
2019-02-06T03:57:45.190Z,13.23
2019-02-06T04:00:22.837Z,13.40
2019-02-06T04:02:55.862Z,12.93
2019-02-06T04:05:24.408Z,12.77
2019-02-06T04:07:54.113Z,12.87
2019-02-06T04:10:24.198Z,13.27
2019-02-06T04:12:58.502Z,13.50
2019-02-06T04:15:26.937Z,12.93
2019-02-06T04:18:00.864Z,14.40
2019-02-06T04:20:29.246Z,15.77
2019-02-06T04:23:05.266Z,14.33
2019-02-06T04:25:36.999Z,13.10
2019-02-06T04:28:06.854Z,14.10
2019-02-06T04:30:36.961Z,14.27
2019-02-06T04:33:09.719Z,14.40
2019-02-06T04:35:38.329Z,14.00
2019-02-06T04:38:08.372Z,13.33
2019-02-06T04:40:39.225Z,13.07
2019-02-06T04:43:07.625Z,13.03
2019-02-06T04:45:36.017Z,13.07
2019-02-06T04:48:09.990Z,14.30
2019-02-06T04:50:38.450Z,13.93
2019-02-06T04:53:09.781Z,13.13
2019-02-06T04:55:38.174Z,14.50
2019-02-06T04:58:09.252Z,14.20
2019-02-06T05:00:37.685Z,14.90
2019-02-06T05:03:16.911Z,16.03
2019-02-06T05:05:54.083Z,15.70
2019-02-06T05:08:27.108Z,17.20
2019-02-06T05:10:57.383Z,15.47
2019-02-06T05:13:34.669Z,14.73
2019-02-06T05:16:04.704Z,14.37
2019-02-06T05:18:35.612Z,14.30
2019-02-06T05:21:06.674Z,14.10
2019-02-06T05:23:36.354Z,14.73
2019-02-06T05:26:09.202Z,15.37
2019-02-06T05:28:39.485Z,14.53
2019-02-06T05:31:13.660Z,13.37
2019-02-06T05:33:54.253Z,13.83
2019-02-06T05:36:15.909Z,15.83
2019-02-06T05:38:44.301Z,15.30
2019-02-06T05:41:12.751Z,15.40
2019-02-06T05:43:45.618Z,16.07
2019-02-06T05:46:17.590Z,15.53
2019-02-06T05:48:49.486Z,14.23
2019-02-06T05:51:27.539Z,14.73
2019-02-06T05:54:04.607Z,16.33
2019-02-06T05:56:33.938Z,16.77
2019-02-06T05:59:02.423Z,19.00
2019-02-06T06:01:32.698Z,18.20
2019-02-06T06:04:02.736Z,16.50
2019-02-06T06:06:36.871Z,17.03
2019-02-06T06:09:15.517Z,15.60
2019-02-06T06:11:46.886Z,15.87
2019-02-06T06:14:19.698Z,15.50
2019-02-06T06:16:50.730Z,14.63
2019-02-06T06:19:20.774Z,15.10
2019-02-06T06:21:52.141Z,15.90
2019-02-06T06:24:20.810Z,18.33
2019-02-06T06:26:49.210Z,18.33
2019-02-06T06:29:28.342Z,17.17
2019-02-06T06:31:47.732Z,17.40
2019-02-06T06:34:16.126Z,19.13
2019-02-06T06:36:46.187Z,20.50
2019-02-06T06:39:14.655Z,18.60
2019-02-06T06:41:47.373Z,18.97
2019-02-06T06:44:15.760Z,18.17
2019-02-06T06:46:47.202Z,19.37
2019-02-06T06:49:19.822Z,20.67
2019-02-06T06:51:53.572Z,21.00
2019-02-06T06:54:23.948Z,20.17
2019-02-06T06:56:52.672Z,20.93
2019-02-06T06:59:21.087Z,22.53
2019-02-06T07:01:49.528Z,20.67
2019-02-06T07:04:17.921Z,20.33
2019-02-06T07:06:46.566Z,18.77
2019-02-06T07:09:15.798Z,18.97
2019-02-06T07:11:44.421Z,18.00
2019-02-06T07:14:12.825Z,19.83
2019-02-06T07:16:41.223Z,17.70
2019-02-06T07:19:10.517Z,20.03
2019-02-06T07:21:38.904Z,18.77
2019-02-06T07:24:08.656Z,22.23
2019-02-06T07:26:42.644Z,23.17
2019-02-06T07:29:11.041Z,19.53
2019-02-06T07:31:42.401Z,21.37
2019-02-06T07:34:11.036Z,23.13
2019-02-06T07:36:39.758Z,21.57
2019-02-06T07:39:15.743Z,21.37
2019-02-06T07:41:47.187Z,26.97
2019-02-06T07:44:15.566Z,25.47
2019-02-06T07:46:45.457Z,24.23
2019-02-06T07:49:19.381Z,22.87
2019-02-06T07:51:50.436Z,21.23
2019-02-06T07:54:20.492Z,22.57
2019-02-06T07:56:51.773Z,21.40
2019-02-06T07:59:20.173Z,20.20
2019-02-06T08:01:48.625Z,23.13
2019-02-06T08:04:17.021Z,21.83
2019-02-06T08:06:48.031Z,21.63
2019-02-06T08:09:17.328Z,20.73
2019-02-06T08:11:51.447Z,22.50
2019-02-06T08:14:23.002Z,21.87
2019-02-06T08:16:54.303Z,21.23
2019-02-06T08:19:22.689Z,24.10
2019-02-06T08:21:51.082Z,21.73
2019-02-06T08:24:21.113Z,22.93
2019-02-06T08:26:49.512Z,21.60
2019-02-06T08:29:20.595Z,21.47
2019-02-06T08:31:56.562Z,21.83
2019-02-06T08:34:25.376Z,21.20
2019-02-06T08:36:55.404Z,20.60
2019-02-06T08:39:23.810Z,20.97
2019-02-06T08:41:55.586Z,19.23
2019-02-06T08:44:25.753Z,20.03
2019-02-06T08:46:54.231Z,20.80
2019-02-06T08:49:24.330Z,18.40
2019-02-06T08:51:52.728Z,19.63
2019-02-06T08:54:21.129Z,18.97
2019-02-06T08:56:49.530Z,19.53
2019-02-06T08:59:17.916Z,19.53
2019-02-06T09:01:50.673Z,17.83
2019-02-06T09:04:25.478Z,18.13
2019-02-06T09:06:53.864Z,17.77
2019-02-06T09:09:22.252Z,18.40
2019-02-06T09:11:56.405Z,18.83
2019-02-06T09:14:29.584Z,18.03
2019-02-06T09:17:02.307Z,18.50
2019-02-06T09:19:35.884Z,18.77
2019-02-06T09:22:07.354Z,17.93
2019-02-06T09:24:40.047Z,18.07
2019-02-06T09:27:11.166Z,17.50
2019-02-06T09:29:51.777Z,18.37
2019-02-06T09:32:20.171Z,16.40
2019-02-06T09:34:54.743Z,16.67
2019-02-06T09:37:23.143Z,17.90
2019-02-06T09:39:51.536Z,16.93
2019-02-06T09:42:24.810Z,16.63
2019-02-06T09:44:57.033Z,17.33
2019-02-06T09:47:25.429Z,18.07
2019-02-06T09:49:56.766Z,18.23
2019-02-06T09:52:28.531Z,17.23
2019-02-06T09:54:59.851Z,17.20
2019-02-06T09:57:35.543Z,17.87
2019-02-06T10:00:06.929Z,18.83
2019-02-06T10:02:38.223Z,17.13
2019-02-06T10:05:09.693Z,18.60
2019-02-06T10:07:39.061Z,17.50
2019-02-06T10:10:20.039Z,19.33
2019-02-06T10:12:49.190Z,17.30
2019-02-06T10:15:23.888Z,18.53
2019-02-06T10:17:55.884Z,18.57
2019-02-06T10:20:30.054Z,18.80
2019-02-06T10:22:59.173Z,18.53
2019-02-06T10:25:36.837Z,19.20
2019-02-06T10:28:07.217Z,17.87
2019-02-06T10:30:41.934Z,19.33
2019-02-06T10:33:13.146Z,20.83
2019-02-06T10:35:42.304Z,21.70
2019-02-06T10:38:11.426Z,21.53
2019-02-06T10:40:45.504Z,20.47
2019-02-06T10:43:16.293Z,22.33
2019-02-06T10:45:47.794Z,22.90
2019-02-06T10:48:17.771Z,21.30
2019-02-06T10:50:51.112Z,22.07
2019-02-06T10:53:31.786Z,21.63
2019-02-06T10:56:02.254Z,21.73
2019-02-06T10:58:33.534Z,22.43
2019-02-06T11:01:08.294Z,24.60
2019-02-06T11:03:39.627Z,22.30
2019-02-06T11:06:10.426Z,23.30
2019-02-06T11:08:40.660Z,22.70
2019-02-06T11:11:14.722Z,21.73
2019-02-06T11:13:43.193Z,22.57
2019-02-06T11:16:14.629Z,22.07
2019-02-06T11:18:45.989Z,22.37
2019-02-06T11:21:17.532Z,23.10
2019-02-06T11:23:46.348Z,24.70
2019-02-06T11:26:14.728Z,22.43
2019-02-06T11:28:43.128Z,23.67
2019-02-06T11:31:18.644Z,23.17
2019-02-06T11:33:47.101Z,23.23
2019-02-06T11:36:24.174Z,25.00
2019-02-06T11:38:54.361Z,23.83
2019-02-06T11:41:26.465Z,23.63
2019-02-06T11:43:55.111Z,23.97
2019-02-06T11:46:25.138Z,24.43
2019-02-06T11:48:54.414Z,25.00
2019-02-06T11:51:24.516Z,23.43
2019-02-06T11:53:55.757Z,22.63
2019-02-06T11:56:29.946Z,23.57
2019-02-06T11:59:07.150Z,22.63
2019-02-06T12:01:37.899Z,24.47
2019-02-06T12:04:12.400Z,23.37
2019-02-06T12:06:41.471Z,24.60
2019-02-06T12:09:15.782Z,24.63
2019-02-06T12:11:47.096Z,22.87
2019-02-06T12:14:16.377Z,23.47
2019-02-06T12:16:46.404Z,23.50
2019-02-06T12:19:17.526Z,24.50
2019-02-06T12:21:50.476Z,24.37
2019-02-06T12:24:19.940Z,24.50
2019-02-06T12:26:53.904Z,25.53
2019-02-06T12:29:33.977Z,24.63
2019-02-06T12:32:02.371Z,24.97
2019-02-06T12:34:30.789Z,24.87
2019-02-06T12:37:08.204Z,23.97
2019-02-06T12:39:40.564Z,24.03
2019-02-06T12:42:14.886Z,23.00
2019-02-06T12:44:43.288Z,24.40
2019-02-06T12:47:11.676Z,24.90
2019-02-06T12:49:42.713Z,24.30
2019-02-06T12:52:11.178Z,24.80
2019-02-06T12:54:39.800Z,24.43
2019-02-06T12:57:09.054Z,25.00
2019-02-06T12:59:43.535Z,23.53
2019-02-06T13:02:11.901Z,24.43
2019-02-06T13:04:40.304Z,24.17
2019-02-06T13:07:10.577Z,23.87
2019-02-06T13:09:40.616Z,22.57
2019-02-06T13:12:15.876Z,24.03
2019-02-06T13:14:47.351Z,24.27
2019-02-06T13:17:15.834Z,23.20
2019-02-06T13:19:46.030Z,24.90
2019-02-06T13:22:16.083Z,24.33
2019-02-06T13:24:44.974Z,23.43
2019-02-06T13:27:13.598Z,23.60
2019-02-06T13:29:50.559Z,24.43
2019-02-06T13:32:19.000Z,24.07
2019-02-06T13:34:49.301Z,23.23
2019-02-06T13:37:17.733Z,24.87
2019-02-06T13:39:46.417Z,24.60
2019-02-06T13:42:14.828Z,23.37
2019-02-06T13:44:43.222Z,24.80
2019-02-06T13:47:12.110Z,25.33
2019-02-06T13:49:40.510Z,24.87
2019-02-06T13:52:08.896Z,26.07
2019-02-06T13:54:46.429Z,25.90
2019-02-06T13:57:14.837Z,23.83
2019-02-06T13:59:44.865Z,24.93
2019-02-06T14:02:17.002Z,24.53
2019-02-06T14:04:45.485Z,25.07
2019-02-06T14:07:24.501Z,23.40
2019-02-06T14:09:49.741Z,24.00
2019-02-06T14:12:20.033Z,22.63
2019-02-06T14:14:52.143Z,23.43
2019-02-06T14:17:22.145Z,23.33
2019-02-06T14:19:50.765Z,22.73
2019-02-06T14:22:24.766Z,23.17
2019-02-06T14:24:53.150Z,23.07
2019-02-06T14:27:44.165Z,23.07
2019-02-06T14:30:47.600Z,23.77
2019-02-06T14:33:30.577Z,22.30
2019-02-06T14:36:22.825Z,22.70
2019-02-06T14:38:54.290Z,23.63
2019-02-06T14:41:40.733Z,24.10
2019-02-06T14:44:41.081Z,24.73
2019-02-06T14:47:27.641Z,23.47
2019-02-06T14:50:01.812Z,23.30
2019-02-06T14:52:49.785Z,22.47
2019-02-06T14:55:42.025Z,23.97
2019-02-06T14:58:34.217Z,24.13
2019-02-06T15:01:21.029Z,24.07
2019-02-06T15:04:07.725Z,23.63
2019-02-06T15:06:45.557Z,23.67
2019-02-06T15:09:42.186Z,24.50
2019-02-06T15:12:30.424Z,23.63
2019-02-06T15:15:24.140Z,24.97
2019-02-06T15:18:21.168Z,23.57
2019-02-06T15:21:13.733Z,23.50
2019-02-06T15:23:48.114Z,25.87
2019-02-06T15:26:45.510Z,25.00
2019-02-06T15:29:37.967Z,22.43
2019-02-06T15:32:28.014Z,24.43
2019-02-06T15:35:15.896Z,24.90
2019-02-06T15:38:10.196Z,25.33
2019-02-06T15:40:56.047Z,25.17
2019-02-06T15:43:45.523Z,25.00
2019-02-06T15:46:36.531Z,25.43
2019-02-06T15:49:32.284Z,26.37
2019-02-06T15:52:24.013Z,25.23
2019-02-06T15:55:13.898Z,26.77
2019-02-06T15:57:51.165Z,25.70
2019-02-06T16:00:34.270Z,25.50
2019-02-06T16:03:23.045Z,25.10
2019-02-06T16:05:56.149Z,22.83
2019-02-06T16:08:48.397Z,23.97
2019-02-06T16:11:42.418Z,25.17
2019-02-06T16:14:19.289Z,24.60
2019-02-06T16:17:10.673Z,26.83
2019-02-06T16:20:17.462Z,25.93
2019-02-06T16:22:59.346Z,24.97
2019-02-06T16:25:39.601Z,25.27
2019-02-06T16:28:16.669Z,27.47
2019-02-06T16:30:51.289Z,25.80
2019-02-06T16:33:54.737Z,25.90
2019-02-06T16:36:37.162Z,25.70
2019-02-06T16:39:28.348Z,26.60
2019-02-06T16:42:09.037Z,28.90
2019-02-06T16:44:54.203Z,25.87
2019-02-06T16:47:31.553Z,26.97
2019-02-06T16:50:14.850Z,28.20
2019-02-06T16:53:04.445Z,29.57
2019-02-06T16:55:50.432Z,30.00
2019-02-06T16:58:27.637Z,29.97
2019-02-06T17:01:01.815Z,30.03
2019-02-06T17:03:35.978Z,30.00
2019-02-06T17:06:13.249Z,30.47
2019-02-06T17:09:12.328Z,30.80
2019-02-06T17:11:49.034Z,30.57
2019-02-06T17:14:40.547Z,32.87
2019-02-06T17:17:24.194Z,33.13
2019-02-06T17:19:58.273Z,34.73
2019-02-06T17:22:41.887Z,32.60
2019-02-06T17:25:39.579Z,32.53
2019-02-06T17:28:23.266Z,30.33
2019-02-06T17:31:06.793Z,34.17
2019-02-06T17:33:55.582Z,42.67
2019-02-06T17:36:46.465Z,42.07
2019-02-06T17:39:32.701Z,38.07
2019-02-06T17:42:22.397Z,38.17
2019-02-06T17:44:53.856Z,36.50
2019-02-06T17:47:29.063Z,37.40
2019-02-06T17:50:15.469Z,38.60
2019-02-06T17:53:00.558Z,37.00
2019-02-06T17:55:31.984Z,45.23
2019-02-06T17:58:00.700Z,43.27
2019-02-06T18:00:50.263Z,41.80
2019-02-06T18:03:18.657Z,43.53
2019-02-06T18:05:49.562Z,45.73
2019-02-06T18:08:17.949Z,38.80
2019-02-06T18:10:46.346Z,36.97
2019-02-06T18:13:22.339Z,38.10
2019-02-06T18:15:54.337Z,39.50
2019-02-06T18:18:23.592Z,36.60
2019-02-06T18:20:54.768Z,37.90
2019-02-06T18:23:24.869Z,38.97
2019-02-06T18:26:05.487Z,40.13
2019-02-06T18:28:33.881Z,38.20
2019-02-06T18:31:05.272Z,38.77
2019-02-06T18:33:36.777Z,40.13
2019-02-06T18:36:06.796Z,36.77
2019-02-06T18:38:46.229Z,34.27
2019-02-06T18:41:10.029Z,33.93
2019-02-06T18:43:39.211Z,38.97
2019-02-06T18:46:08.436Z,40.43
2019-02-06T18:48:39.845Z,38.13
2019-02-06T18:51:10.744Z,38.03
2019-02-06T18:53:40.916Z,39.57
2019-02-06T18:56:10.074Z,37.63
2019-02-06T18:58:38.473Z,39.37
2019-02-06T19:01:12.994Z,41.80
2019-02-06T19:03:44.576Z,42.13
2019-02-06T19:06:13.320Z,50.67
2019-02-06T19:08:45.321Z,55.80
2019-02-06T19:11:13.800Z,54.67
2019-02-06T19:13:45.607Z,52.30
2019-02-06T19:16:13.981Z,48.73
2019-02-06T19:18:42.444Z,42.93
2019-02-06T19:21:16.205Z,39.10
2019-02-06T19:23:53.471Z,37.87
2019-02-06T19:26:23.586Z,36.93
2019-02-06T19:28:54.897Z,39.03
2019-02-06T19:31:26.315Z,38.80
2019-02-06T19:33:55.038Z,38.30
2019-02-06T19:36:26.937Z,37.70
2019-02-06T19:38:58.077Z,35.70
2019-02-06T19:41:26.761Z,34.50
2019-02-06T19:43:56.817Z,34.37
2019-02-06T19:46:26.737Z,33.07
2019-02-06T19:48:58.136Z,34.30
2019-02-06T19:51:30.079Z,35.30
2019-02-06T19:54:00.122Z,39.60
2019-02-06T19:56:31.537Z,44.93
2019-02-06T19:59:04.206Z,42.37
2019-02-06T20:01:38.294Z,41.47
2019-02-06T20:04:09.121Z,39.93
2019-02-06T20:06:45.595Z,39.30
2019-02-06T20:09:16.854Z,38.60
2019-02-06T20:11:46.162Z,37.30
2019-02-06T20:14:14.557Z,48.10
2019-02-06T20:16:43.971Z,53.17
2019-02-06T20:19:17.104Z,47.90
2019-02-06T20:21:48.020Z,42.87
2019-02-06T20:24:19.430Z,38.53
2019-02-06T20:26:48.408Z,37.40
2019-02-06T20:29:16.794Z,40.67
2019-02-06T20:31:46.837Z,38.33
2019-02-06T20:34:15.310Z,39.70
2019-02-06T20:36:45.134Z,38.83
2019-02-06T20:39:13.781Z,40.37
2019-02-06T20:41:42.422Z,37.13
2019-02-06T20:44:11.061Z,35.37
2019-02-06T20:46:39.783Z,37.77
2019-02-06T20:49:08.188Z,34.97
2019-02-06T20:51:37.249Z,34.03
2019-02-06T20:54:06.888Z,36.27
2019-02-06T20:56:37.158Z,35.83
2019-02-06T20:59:05.633Z,37.57
2019-02-06T21:01:34.042Z,37.83
2019-02-06T21:04:05.639Z,41.37
2019-02-06T21:06:40.937Z,42.77
2019-02-06T21:09:12.162Z,39.73
2019-02-06T21:11:43.281Z,39.10
2019-02-06T21:14:14.152Z,37.30
2019-02-06T21:16:48.181Z,40.80
2019-02-06T21:19:22.225Z,44.77
2019-02-06T21:22:05.150Z,44.00
2019-02-06T21:24:36.373Z,44.03
2019-02-06T21:27:09.328Z,46.73
2019-02-06T21:29:39.177Z,47.97
2019-02-06T21:32:09.449Z,48.90
2019-02-06T21:34:38.014Z,47.87
2019-02-06T21:37:10.507Z,48.77
2019-02-06T21:39:38.955Z,47.27
2019-02-06T21:42:11.313Z,46.93
2019-02-06T21:44:40.017Z,41.63
2019-02-06T21:47:14.017Z,42.93
2019-02-06T21:49:39.665Z,40.93
2019-02-06T21:52:09.709Z,41.43
2019-02-06T21:54:41.009Z,39.37
2019-02-06T21:57:09.400Z,36.80
2019-02-06T21:59:39.432Z,35.37
2019-02-06T22:02:12.143Z,34.67
2019-02-06T22:04:43.548Z,36.27
2019-02-06T22:07:14.858Z,37.20
2019-02-06T22:09:45.954Z,36.23
2019-02-06T22:12:15.982Z,37.83
2019-02-06T22:14:47.354Z,37.20
2019-02-06T22:17:17.382Z,38.43
2019-02-06T22:19:55.052Z,39.03
2019-02-06T22:22:26.349Z,38.07
2019-02-06T22:24:54.752Z,36.87
2019-02-06T22:27:26.825Z,39.67
2019-02-06T22:29:55.224Z,39.17
2019-02-06T22:32:26.577Z,37.37
2019-02-06T22:34:57.472Z,35.60
2019-02-06T22:37:28.611Z,38.87
2019-02-06T22:39:59.422Z,41.87
2019-02-06T22:42:32.425Z,36.83
2019-02-06T22:45:02.885Z,33.77
2019-02-06T22:47:34.180Z,34.23
2019-02-06T22:50:04.214Z,35.30
2019-02-06T22:52:32.624Z,36.17
2019-02-06T22:55:03.714Z,37.87
2019-02-06T22:57:32.352Z,36.77
2019-02-06T23:00:05.501Z,34.87
2019-02-06T23:02:34.170Z,35.23
2019-02-06T23:05:05.393Z,33.53
2019-02-06T23:07:37.368Z,35.27
2019-02-06T23:10:12.682Z,35.23
2019-02-06T23:12:43.970Z,33.43
2019-02-06T23:15:15.493Z,33.80
2019-02-06T23:17:43.872Z,34.17
2019-02-06T23:20:18.655Z,33.63
2019-02-06T23:22:47.045Z,34.90
2019-02-06T23:25:16.101Z,37.07
2019-02-06T23:27:50.092Z,37.93
2019-02-06T23:30:18.518Z,32.43
2019-02-06T23:32:54.729Z,34.47
2019-02-06T23:35:23.118Z,33.10
2019-02-06T23:37:51.531Z,29.10
2019-02-06T23:40:26.337Z,31.60
2019-02-06T23:42:57.393Z,35.03
2019-02-06T23:45:32.234Z,32.43
2019-02-06T23:48:03.527Z,32.87
2019-02-06T23:50:31.908Z,33.00
2019-02-06T23:53:02.215Z,33.60
2019-02-06T23:55:30.605Z,30.20
2019-02-06T23:58:01.753Z,31.30
